ウォリス島 の空港の天気 - METARとTAF

ヒヒフォ空港 ( NLWW / WLS ) - ウォリス・フツナ ウォリス島 マタウトゥ
飛行場実況気象(Metar)
観測時間06/01 21:00 WFT (06/01 09:00 UTC)
風向・風速東南東 2m/s
視程10km以上
天気現象
なし
気温25℃
湿度94%
気圧1016hPa
METARNLWW 010900Z AUTO 12004KT 080V140 9999 NCD 25/24 Q1016 TEMPO 4000 SHRA SCT018 SCT020CB BKN030
過去の天気等 Google飛行場航空写真 Wunderground天気予報

過去48時間のMETAR

飛行場予報(TAF)
発表時間: 6/01 17:00 WFT (6/01 05:00 UTC)
予報対象時間: 1日18時 WFT ~ 2日18時 WFT
風向・風速東 3m/s
視程10km以上
全天の4割程度の雲 雲底高度 460m
全天の4割程度の雲 雲底高度 610m
全天の8割程度の雲 雲底高度 1830m
1日18時 WFT ~ 2日10時 WFT に一時的に
視程4000m
天気現象しゅう雨
全天の4割程度の雲 雲底高度 550m
全天の4割程度の積乱雲 雲底高度 610m
全天の8割程度の雲 雲底高度 910m
1日18時 WFT ~ 1日20時 WFT に 確率 40% で一時的に
視程1000m
天気現象雷雨
全天の8割程度の雲 雲底高度 370m
全天の4割程度の積乱雲 雲底高度 550m
全天の8割程度の雲 雲底高度 610m
TAF NLWW 010500Z 0106/0206 08005KT 9999 SCT015 SCT020 BKN060
TEMPO 0106/0122 4000 SHRA SCT018 SCT020CB BKN030
PROB40 TEMPO 0106/0108 1000 TSRA BKN012 SCT018CB BKN020